Historique des mesures à Cassis (13260), France
Quotidien Résumé Septembre 16, 2017 Unités:  Métrique    US   Métrique/US
« Précédent (Jour)
Suivant (Jour) »
Quotidien Hebdomadaire Mensuel Annuel Période au choix
  Maximum: Minimum: Moyenne:
Température: TemperatureC °C 12.5 °C 15.4 °C
Point de rosée: DewpointC °C 6.7 °C 7.9 °C
Humidité: Humidity % 47 % 58 %
Vitesse du vent: 0 km/h 0 km/h 11.3 km/h
Rafales: 0 km/h - -
Vent:- - South
Pression: PressurehPa hPa 1006.7 hPa -
Précipitations: 0.0 mm    
Historical Graphs
 
 
Mesures pour : Septembre 16, 2017
Heure Temperature Point de rosée Pression Vent Vitesse du vent Rafales Humidité Pluie (par heure) Conditions
TemperatureC °C DewpointC °C PressurehPa hPa Calm     Humidity % HourlyPrecipMM mm SoftwareType W/m2
00:11 13.3 °C 9.1 °C 1008.4 hPa North 8.9 km/h 8.9 km/h 76 % 0.0 mm open2300-1.11 W/m2
01:11 13.8 °C 9.6 °C 1008.0 hPa Calm   12.2 km/h 76 % 0.0 mm open2300-1.11 W/m2
02:11 13.9 °C 9.5 °C 1007.7 hPa Calm   2.3 km/h 75 % 0.0 mm open2300-1.11 W/m2
03:11 13.4 °C 8.6 °C 1007.3 hPa Calm     73 % 0.0 mm open2300-1.11 W/m2
04:11 13.2 °C 7.2 °C 1006.7 hPa North 8 km/h 9.3 km/h 67 % 0.0 mm open2300-1.11 W/m2
05:11 12.9 °C 6.9 °C 1006.7 hPa WNW 15 km/h 15 km/h 67 % 0.0 mm open2300-1.11 W/m2
06:11 12.5 °C 6.8 °C 1006.7 hPa NNW 9.8 km/h 9.8 km/h 68 % 0.0 mm open2300-1.11 W/m2
07:11 13.0 °C 6.8 °C 1006.7 hPa NNW 12.7 km/h 12.7 km/h 66 % 0.0 mm open2300-1.11 W/m2
08:11 13.2 °C 6.7 °C 1007.3 hPa NNE 7.6 km/h 9.8 km/h 65 % 0.0 mm open2300-1.11 W/m2
09:11 14.3 °C 7.3 °C 1007.7 hPa North 4.2 km/h 12.2 km/h 63 % 0.0 mm open2300-1.11 W/m2
10:11 15.6 °C 7.9 °C 1008.0 hPa North 6.4 km/h 16.3 km/h 60 % 0.0 mm open2300-1.11 W/m2
11:11 17.9 °C 8.9 °C 1008.4 hPa NNE 8.9 km/h 8.9 km/h 56 % 0.0 mm open2300-1.11 W/m2
12:11 19.7 °C 8.1 °C 1008.4 hPa North 9.3 km/h 28.5 km/h 47 % 0.0 mm open2300-1.11 W/m2
13:11 20.0 °C 8.6 °C 1008.7 hPa WNW 13.2 km/h 23 km/h 48 % 0.0 mm open2300-1.11 W/m2
14:11 19.3 °C 10.0 °C 1008.0 hPa NW 38.8 km/h 38.8 km/h 55 % 0.0 mm open2300-1.11 W/m2
15:11 19.3 °C 9.7 °C 1007.7 hPa NW 26.7 km/h 38.8 km/h 54 % 0.0 mm open2300-1.11 W/m2
17:11 19.9 °C 9.2 °C 1007.7 hPa NW 25.4 km/h 25.4 km/h 50 % 0.0 mm open2300-1.11 W/m2
18:11 19.1 °C 7.8 °C 1008.0 hPa NW 9.8 km/h 9.8 km/h 48 % 0.0 mm open2300-1.11 W/m2
19:11 18.3 °C 6.7 °C 1008.4 hPa Calm   5.6 km/h 47 % 0.0 mm open2300-1.11 W/m2
20:11 17.3 °C 7.8 °C 1008.4 hPa NNE 3.4 km/h 12.7 km/h 54 % 0.0 mm open2300-1.11 W/m2
21:11 16.4 °C 8.4 °C 1009.0 hPa NW 13.2 km/h 13.2 km/h 59 % 0.0 mm open2300-1.11 W/m2
22:11 16.7 °C 8.9 °C 1009.0 hPa North 26.2 km/h 26.7 km/h 60 % 0.0 mm open2300-1.11 W/m2
23:11 16.3 °C 9.0 °C 1009.4 hPa NW 21.6 km/h 27.7 km/h 62 % 0.0 mm open2300-1.11 W/m2
Observations météo à CASSIS
WU-History script by Weather Underground - 1 mb